sensor_id;sensor_type;location;lat;lon;timestamp;pressure;altitude;pressure_sealevel;temperature;humidity
79075;BME280;68476;42.710;23.388;2023-12-20T00:02:12;96056.34;;;-4.82;100.00
79075;BME280;68476;42.710;23.388;2023-12-20T00:04:37;96056.69;;;-4.75;100.00
79075;BME280;68476;42.710;23.388;2023-12-20T00:07:03;96053.66;;;-4.70;100.00
79075;BME280;68476;42.710;23.388;2023-12-20T00:09:28;96054.03;;;-4.64;100.00
79075;BME280;68476;42.710;23.388;2023-12-20T00:11:54;96048.84;;;-4.76;100.00
79075;BME280;68476;42.710;23.388;2023-12-20T00:14:19;96045.34;;;-4.66;100.00
79075;BME280;68476;42.710;23.388;2023-12-20T00:16:45;96051.16;;;-4.72;100.00
79075;BME280;68476;42.710;23.388;2023-12-20T00:19:11;96047.16;;;-4.77;100.00
79075;BME280;68476;42.710;23.388;2023-12-20T00:21:36;96042.44;;;-4.74;100.00
79075;BME280;68476;42.710;23.388;2023-12-20T00:24:02;96045.09;;;-4.85;100.00
79075;BME280;68476;42.710;23.388;2023-12-20T00:26:27;96037.25;;;-4.87;100.00
79075;BME280;68476;42.710;23.388;2023-12-20T00:28:53;96037.25;;;-4.87;100.00
79075;BME280;68476;42.710;23.388;2023-12-20T00:31:18;96029.75;;;-5.04;100.00
79075;BME280;68476;42.710;23.388;2023-12-20T00:33:44;96018.53;;;-5.08;100.00
79075;BME280;68476;42.710;23.388;2023-12-20T00:36:11;96018.53;;;-4.97;100.00
79075;BME280;68476;42.710;23.388;2023-12-20T00:38:36;96011.88;;;-4.91;100.00
79075;BME280;68476;42.710;23.388;2023-12-20T00:41:02;96007.78;;;-4.95;100.00
79075;BME280;68476;42.710;23.388;2023-12-20T00:43:27;96012.13;;;-5.05;100.00
79075;BME280;68476;42.710;23.388;2023-12-20T00:45:53;96009.13;;;-5.01;100.00
79075;BME280;68476;42.710;23.388;2023-12-20T00:48:18;96007.91;;;-5.08;100.00
79075;BME280;68476;42.710;23.388;2023-12-20T00:50:44;96011.44;;;-5.19;100.00
79075;BME280;68476;42.710;23.388;2023-12-20T00:53:09;96010.78;;;-5.22;100.00
79075;BME280;68476;42.710;23.388;2023-12-20T00:55:35;96006.13;;;-5.19;100.00
79075;BME280;68476;42.710;23.388;2023-12-20T00:58:00;96004.88;;;-5.15;100.00
79075;BME280;68476;42.710;23.388;2023-12-20T01:00:26;95995.84;;;-5.12;100.00
79075;BME280;68476;42.710;23.388;2023-12-20T01:02:51;95991.13;;;-5.08;100.00
79075;BME280;68476;42.710;23.388;2023-12-20T01:05:20;95989.06;;;-5.16;100.00
79075;BME280;68476;42.710;23.388;2023-12-20T01:07:48;95995.13;;;-5.26;100.00
79075;BME280;68476;42.710;23.388;2023-12-20T01:10:14;95987.50;;;-5.30;100.00
79075;BME280;68476;42.710;23.388;2023-12-20T01:12:39;95985.81;;;-5.31;100.00
79075;BME280;68476;42.710;23.388;2023-12-20T01:15:05;95976.63;;;-5.27;100.00
79075;BME280;68476;42.710;23.388;2023-12-20T01:17:31;95976.16;;;-5.09;100.00
79075;BME280;68476;42.710;23.388;2023-12-20T01:19:56;95982.66;;;-5.25;100.00
79075;BME280;68476;42.710;23.388;2023-12-20T01:22:23;95980.00;;;-5.25;100.00
79075;BME280;68476;42.710;23.388;2023-12-20T01:24:49;95968.19;;;-5.21;100.00
79075;BME280;68476;42.710;23.388;2023-12-20T01:27:14;95964.28;;;-5.28;100.00
79075;BME280;68476;42.710;23.388;2023-12-20T01:29:39;95968.66;;;-5.27;100.00
79075;BME280;68476;42.710;23.388;2023-12-20T01:32:05;95957.56;;;-5.21;100.00
79075;BME280;68476;42.710;23.388;2023-12-20T01:34:31;95950.78;;;-5.36;100.00
79075;BME280;68476;42.710;23.388;2023-12-20T01:36:56;95940.88;;;-5.46;100.00
79075;BME280;68476;42.710;23.388;2023-12-20T01:39:22;95956.22;;;-5.27;100.00
79075;BME280;68476;42.710;23.388;2023-12-20T01:41:47;95945.34;;;-5.35;100.00
79075;BME280;68476;42.710;23.388;2023-12-20T01:44:13;95946.69;;;-5.29;100.00
79075;BME280;68476;42.710;23.388;2023-12-20T01:46:38;95937.03;;;-5.42;100.00
79075;BME280;68476;42.710;23.388;2023-12-20T01:49:04;95938.69;;;-5.41;100.00
79075;BME280;68476;42.710;23.388;2023-12-20T01:51:29;95932.31;;;-5.49;100.00
79075;BME280;68476;42.710;23.388;2023-12-20T01:53:57;95930.72;;;-5.41;100.00
79075;BME280;68476;42.710;23.388;2023-12-20T01:56:23;95929.16;;;-5.32;100.00
79075;BME280;68476;42.710;23.388;2023-12-20T01:58:49;95936.31;;;-5.44;100.00
79075;BME280;68476;42.710;23.388;2023-12-20T02:01:15;95919.88;;;-5.37;100.00
79075;BME280;68476;42.710;23.388;2023-12-20T02:03:41;95922.16;;;-5.44;100.00
79075;BME280;68476;42.710;23.388;2023-12-20T02:06:08;95924.94;;;-5.34;100.00
79075;BME280;68476;42.710;23.388;2023-12-20T02:08:34;95920.84;;;-5.38;100.00
79075;BME280;68476;42.710;23.388;2023-12-20T02:11:00;95915.78;;;-5.42;100.00
79075;BME280;68476;42.710;23.388;2023-12-20T02:13:25;95915.78;;;-5.42;100.00
79075;BME280;68476;42.710;23.388;2023-12-20T02:15:52;95907.81;;;-5.42;100.00
79075;BME280;68476;42.710;23.388;2023-12-20T02:18:17;95903.94;;;-5.37;100.00
79075;BME280;68476;42.710;23.388;2023-12-20T02:20:43;95903.56;;;-5.44;100.00
79075;BME280;68476;42.710;23.388;2023-12-20T02:23:08;95909.97;;;-5.47;100.00
79075;BME280;68476;42.710;23.388;2023-12-20T02:25:34;95899.97;;;-5.66;100.00
79075;BME280;68476;42.710;23.388;2023-12-20T02:28:00;95897.66;;;-5.59;100.00
79075;BME280;68476;42.710;23.388;2023-12-20T02:30:26;95897.16;;;-5.64;100.00
79075;BME280;68476;42.710;23.388;2023-12-20T02:32:52;95896.47;;;-5.44;100.00
79075;BME280;68476;42.710;23.388;2023-12-20T02:35:18;95893.91;;;-5.45;100.00
79075;BME280;68476;42.710;23.388;2023-12-20T02:37:43;95895.59;;;-5.33;100.00
79075;BME280;68476;42.710;23.388;2023-12-20T02:40:09;95891.88;;;-5.30;100.00
79075;BME280;68476;42.710;23.388;2023-12-20T02:42:35;95887.75;;;-5.34;100.00
79075;BME280;68476;42.710;23.388;2023-12-20T02:45:01;95883.63;;;-5.27;100.00
79075;BME280;68476;42.710;23.388;2023-12-20T02:47:26;95878.09;;;-5.35;100.00
79075;BME280;68476;42.710;23.388;2023-12-20T02:49:52;95874.06;;;-5.18;100.00
79075;BME280;68476;42.710;23.388;2023-12-20T02:52:18;95878.06;;;-5.24;100.00
79075;BME280;68476;42.710;23.388;2023-12-20T02:54:43;95869.97;;;-5.22;100.00
79075;BME280;68476;42.710;23.388;2023-12-20T02:57:09;95874.78;;;-5.16;100.00
79075;BME280;68476;42.710;23.388;2023-12-20T02:59:34;95881.78;;;-5.04;100.00
79075;BME280;68476;42.710;23.388;2023-12-20T03:02:00;95880.44;;;-4.98;100.00
79075;BME280;68476;42.710;23.388;2023-12-20T03:04:25;95871.59;;;-4.99;100.00
79075;BME280;68476;42.710;23.388;2023-12-20T03:06:51;95882.38;;;-5.00;100.00
79075;BME280;68476;42.710;23.388;2023-12-20T03:09:16;95873.38;;;-4.88;100.00
79075;BME280;68476;42.710;23.388;2023-12-20T03:11:42;95876.22;;;-4.68;100.00
79075;BME280;68476;42.710;23.388;2023-12-20T03:14:08;95877.13;;;-4.58;100.00
79075;BME280;68476;42.710;23.388;2023-12-20T03:16:33;95860.91;;;-4.55;100.00
79075;BME280;68476;42.710;23.388;2023-12-20T03:18:58;95871.13;;;-4.60;100.00
79075;BME280;68476;42.710;23.388;2023-12-20T03:21:24;95866.50;;;-4.58;100.00
79075;BME280;68476;42.710;23.388;2023-12-20T03:23:49;95866.75;;;-4.61;100.00
79075;BME280;68476;42.710;23.388;2023-12-20T03:26:15;95860.25;;;-4.68;100.00
79075;BME280;68476;42.710;23.388;2023-12-20T03:28:40;95863.28;;;-4.73;100.00
79075;BME280;68476;42.710;23.388;2023-12-20T03:31:06;95865.63;;;-4.80;100.00
79075;BME280;68476;42.710;23.388;2023-12-20T03:33:31;95862.66;;;-4.98;100.00
79075;BME280;68476;42.710;23.388;2023-12-20T03:35:57;95863.59;;;-4.87;100.00
79075;BME280;68476;42.710;23.388;2023-12-20T03:38:22;95856.22;;;-4.84;100.00
79075;BME280;68476;42.710;23.388;2023-12-20T03:40:50;95857.19;;;-4.85;100.00
79075;BME280;68476;42.710;23.388;2023-12-20T03:43:16;95857.63;;;-4.80;100.00
79075;BME280;68476;42.710;23.388;2023-12-20T03:45:42;95855.56;;;-4.76;100.00
79075;BME280;68476;42.710;23.388;2023-12-20T03:48:08;95852.28;;;-4.68;100.00
79075;BME280;68476;42.710;23.388;2023-12-20T03:50:34;95853.47;;;-4.61;100.00
79075;BME280;68476;42.710;23.388;2023-12-20T03:53:00;95846.56;;;-4.64;100.00
79075;BME280;68476;42.710;23.388;2023-12-20T03:55:25;95845.25;;;-4.69;100.00
79075;BME280;68476;42.710;23.388;2023-12-20T03:57:51;95847.19;;;-4.60;100.00
79075;BME280;68476;42.710;23.388;2023-12-20T04:00:17;95841.44;;;-4.76;100.00
79075;BME280;68476;42.710;23.388;2023-12-20T04:02:42;95842.88;;;-4.72;100.00
79075;BME280;68476;42.710;23.388;2023-12-20T04:05:09;95844.63;;;-4.83;100.00
79075;BME280;68476;42.710;23.388;2023-12-20T04:07:38;95835.88;;;-4.73;100.00
79075;BME280;68476;42.710;23.388;2023-12-20T04:10:03;95828.66;;;-4.83;100.00
79075;BME280;68476;42.710;23.388;2023-12-20T04:12:29;95821.81;;;-4.64;100.00
79075;BME280;68476;42.710;23.388;2023-12-20T04:14:55;95827.38;;;-4.67;100.00
79075;BME280;68476;42.710;23.388;2023-12-20T04:17:21;95827.19;;;-4.75;100.00
79075;BME280;68476;42.710;23.388;2023-12-20T04:19:48;95827.75;;;-4.72;100.00
79075;BME280;68476;42.710;23.388;2023-12-20T04:22:14;95826.78;;;-4.71;100.00
79075;BME280;68476;42.710;23.388;2023-12-20T04:24:39;95822.44;;;-4.72;100.00
79075;BME280;68476;42.710;23.388;2023-12-20T04:27:07;95827.91;;;-4.73;100.00
79075;BME280;68476;42.710;23.388;2023-12-20T04:29:33;95821.28;;;-4.79;100.00
79075;BME280;68476;42.710;23.388;2023-12-20T04:31:58;95814.84;;;-4.76;100.00
79075;BME280;68476;42.710;23.388;2023-12-20T04:34:24;95810.97;;;-4.72;100.00
79075;BME280;68476;42.710;23.388;2023-12-20T04:36:49;95810.88;;;-4.82;100.00
79075;BME280;68476;42.710;23.388;2023-12-20T04:39:15;95807.34;;;-4.71;100.00
79075;BME280;68476;42.710;23.388;2023-12-20T04:41:40;95803.09;;;-4.74;100.00
79075;BME280;68476;42.710;23.388;2023-12-20T04:44:06;95809.28;;;-4.73;100.00
79075;BME280;68476;42.710;23.388;2023-12-20T04:46:32;95799.56;;;-4.63;100.00
79075;BME280;68476;42.710;23.388;2023-12-20T04:48:57;95799.22;;;-4.70;100.00
79075;BME280;68476;42.710;23.388;2023-12-20T04:51:23;95807.00;;;-4.57;100.00
79075;BME280;68476;42.710;23.388;2023-12-20T04:53:48;95811.06;;;-4.74;100.00
79075;BME280;68476;42.710;23.388;2023-12-20T04:56:14;95802.03;;;-4.71;100.00
79075;BME280;68476;42.710;23.388;2023-12-20T04:58:39;95805.13;;;-4.66;100.00
79075;BME280;68476;42.710;23.388;2023-12-20T05:01:05;95788.78;;;-4.40;100.00
79075;BME280;68476;42.710;23.388;2023-12-20T05:03:31;95785.56;;;-4.34;100.00
79075;BME280;68476;42.710;23.388;2023-12-20T05:05:57;95795.00;;;-4.30;100.00
79075;BME280;68476;42.710;23.388;2023-12-20T05:08:22;95787.00;;;-4.30;100.00
79075;BME280;68476;42.710;23.388;2023-12-20T05:10:48;95778.53;;;-4.14;100.00
79075;BME280;68476;42.710;23.388;2023-12-20T05:13:13;95789.06;;;-4.12;100.00
79075;BME280;68476;42.710;23.388;2023-12-20T05:15:39;95779.19;;;-4.22;100.00
79075;BME280;68476;42.710;23.388;2023-12-20T05:18:04;95782.06;;;-4.13;100.00
79075;BME280;68476;42.710;23.388;2023-12-20T05:20:30;95778.13;;;-4.09;100.00
79075;BME280;68476;42.710;23.388;2023-12-20T05:22:55;95778.38;;;-4.22;100.00
79075;BME280;68476;42.710;23.388;2023-12-20T05:25:21;95768.38;;;-4.30;100.00
79075;BME280;68476;42.710;23.388;2023-12-20T05:27:47;95773.47;;;-4.17;100.00
79075;BME280;68476;42.710;23.388;2023-12-20T05:30:12;95774.66;;;-4.10;100.00
79075;BME280;68476;42.710;23.388;2023-12-20T05:32:39;95767.31;;;-4.18;100.00
79075;BME280;68476;42.710;23.388;2023-12-20T05:35:04;95760.22;;;-4.07;100.00
79075;BME280;68476;42.710;23.388;2023-12-20T05:37:30;95758.28;;;-4.05;100.00
79075;BME280;68476;42.710;23.388;2023-12-20T05:39:55;95759.56;;;-3.99;100.00
79075;BME280;68476;42.710;23.388;2023-12-20T05:42:21;95756.84;;;-4.09;100.00
79075;BME280;68476;42.710;23.388;2023-12-20T05:44:46;95759.50;;;-4.09;100.00
79075;BME280;68476;42.710;23.388;2023-12-20T05:47:12;95753.66;;;-4.03;100.00
79075;BME280;68476;42.710;23.388;2023-12-20T05:49:37;95753.16;;;-3.87;100.00
79075;BME280;68476;42.710;23.388;2023-12-20T05:52:03;95757.16;;;-4.03;100.00
79075;BME280;68476;42.710;23.388;2023-12-20T05:54:28;95748.53;;;-3.85;100.00
79075;BME280;68476;42.710;23.388;2023-12-20T05:56:54;95743.34;;;-3.87;100.00
79075;BME280;68476;42.710;23.388;2023-12-20T05:59:19;95743.34;;;-3.87;100.00
79075;BME280;68476;42.710;23.388;2023-12-20T06:01:45;95743.00;;;-4.03;100.00
79075;BME280;68476;42.710;23.388;2023-12-20T06:04:10;95743.63;;;-3.80;100.00
79075;BME280;68476;42.710;23.388;2023-12-20T06:06:41;95739.47;;;-3.73;100.00
79075;BME280;68476;42.710;23.388;2023-12-20T06:09:07;95731.06;;;-3.68;100.00
79075;BME280;68476;42.710;23.388;2023-12-20T06:11:32;95734.41;;;-3.76;100.00
79075;BME280;68476;42.710;23.388;2023-12-20T06:13:58;95745.22;;;-3.67;100.00
79075;BME280;68476;42.710;23.388;2023-12-20T06:16:23;95740.28;;;-3.72;100.00
79075;BME280;68476;42.710;23.388;2023-12-20T06:18:49;95735.53;;;-3.68;100.00
79075;BME280;68476;42.710;23.388;2023-12-20T06:21:14;95736.66;;;-3.71;100.00
79075;BME280;68476;42.710;23.388;2023-12-20T06:23:40;95746.88;;;-3.76;100.00
79075;BME280;68476;42.710;23.388;2023-12-20T06:26:06;95745.06;;;-3.76;100.00
79075;BME280;68476;42.710;23.388;2023-12-20T06:28:31;95747.31;;;-3.71;100.00
79075;BME280;68476;42.710;23.388;2023-12-20T06:30:57;95740.28;;;-3.72;100.00
79075;BME280;68476;42.710;23.388;2023-12-20T06:33:23;95743.25;;;-3.65;100.00
79075;BME280;68476;42.710;23.388;2023-12-20T06:35:49;95739.47;;;-3.73;100.00
79075;BME280;68476;42.710;23.388;2023-12-20T06:38:15;95743.00;;;-3.62;100.00
79075;BME280;68476;42.710;23.388;2023-12-20T06:40:40;95742.59;;;-3.58;100.00
79075;BME280;68476;42.710;23.388;2023-12-20T06:43:08;95730.81;;;-3.65;100.00
79075;BME280;68476;42.710;23.388;2023-12-20T06:45:33;95734.72;;;-3.49;100.00
79075;BME280;68476;42.710;23.388;2023-12-20T06:47:58;95726.31;;;-3.45;100.00
79075;BME280;68476;42.710;23.388;2023-12-20T06:50:24;95725.63;;;-3.47;100.00
79075;BME280;68476;42.710;23.388;2023-12-20T06:52:49;95729.44;;;-3.39;100.00
79075;BME280;68476;42.710;23.388;2023-12-20T06:55:15;95729.59;;;-3.21;100.00
79075;BME280;68476;42.710;23.388;2023-12-20T06:57:41;95714.44;;;-3.31;100.00
79075;BME280;68476;42.710;23.388;2023-12-20T07:00:06;95709.22;;;-3.52;100.00
79075;BME280;68476;42.710;23.388;2023-12-20T07:02:33;95718.47;;;-3.46;100.00
79075;BME280;68476;42.710;23.388;2023-12-20T07:04:59;95714.69;;;-3.44;100.00
79075;BME280;68476;42.710;23.388;2023-12-20T07:07:25;95722.16;;;-3.37;100.00
79075;BME280;68476;42.710;23.388;2023-12-20T07:09:51;95708.53;;;-3.25;100.00
79075;BME280;68476;42.710;23.388;2023-12-20T07:12:17;95708.09;;;-3.20;100.00
79075;BME280;68476;42.710;23.388;2023-12-20T07:14:45;95707.25;;;-3.11;100.00
79075;BME280;68476;42.710;23.388;2023-12-20T07:17:10;95707.41;;;-3.12;100.00
79075;BME280;68476;42.710;23.388;2023-12-20T07:19:41;95701.50;;;-2.96;100.00
79075;BME280;68476;42.710;23.388;2023-12-20T07:22:07;95702.72;;;-2.61;100.00
79075;BME280;68476;42.710;23.388;2023-12-20T07:24:33;95697.84;;;-3.05;100.00
79075;BME280;68476;42.710;23.388;2023-12-20T07:27:00;95702.47;;;-2.97;100.00
79075;BME280;68476;42.710;23.388;2023-12-20T07:29:26;95697.16;;;-2.87;100.00
79075;BME280;68476;42.710;23.388;2023-12-20T07:31:52;95688.91;;;-2.46;100.00
79075;BME280;68476;42.710;23.388;2023-12-20T07:34:19;95686.16;;;-2.74;100.00
79075;BME280;68476;42.710;23.388;2023-12-20T07:36:45;95689.84;;;-2.85;100.00
79075;BME280;68476;42.710;23.388;2023-12-20T07:39:10;95689.31;;;-2.99;100.00
79075;BME280;68476;42.710;23.388;2023-12-20T07:41:36;95691.38;;;-2.83;100.00
79075;BME280;68476;42.710;23.388;2023-12-20T07:44:01;95687.63;;;-2.90;100.00
79075;BME280;68476;42.710;23.388;2023-12-20T07:46:27;95686.47;;;-2.77;100.00
79075;BME280;68476;42.710;23.388;2023-12-20T07:48:52;95682.13;;;-2.79;100.00
79075;BME280;68476;42.710;23.388;2023-12-20T07:51:18;95692.63;;;-2.67;100.00
79075;BME280;68476;42.710;23.388;2023-12-20T07:53:44;95690.41;;;-2.91;100.00
79075;BME280;68476;42.710;23.388;2023-12-20T07:56:19;95681.25;;;-2.79;100.00
79075;BME280;68476;42.710;23.388;2023-12-20T07:58:45;95671.22;;;-2.57;100.00
79075;BME280;68476;42.710;23.388;2023-12-20T08:01:11;95674.22;;;-2.70;100.00
79075;BME280;68476;42.710;23.388;2023-12-20T08:03:37;95675.72;;;-2.48;100.00
79075;BME280;68476;42.710;23.388;2023-12-20T08:06:03;95678.25;;;-2.46;100.00
79075;BME280;68476;42.710;23.388;2023-12-20T08:08:28;95678.69;;;-2.23;100.00
79075;BME280;68476;42.710;23.388;2023-12-20T08:10:54;95675.13;;;-2.42;100.00
79075;BME280;68476;42.710;23.388;2023-12-20T08:13:19;95668.53;;;-2.10;100.00
79075;BME280;68476;42.710;23.388;2023-12-20T08:15:45;95666.09;;;-2.31;100.00
79075;BME280;68476;42.710;23.388;2023-12-20T08:18:10;95669.69;;;-1.84;100.00
79075;BME280;68476;42.710;23.388;2023-12-20T08:20:36;95668.00;;;-2.13;100.00
79075;BME280;68476;42.710;23.388;2023-12-20T08:23:01;95658.41;;;-2.44;100.00
79075;BME280;68476;42.710;23.388;2023-12-20T08:25:27;95659.22;;;-2.34;100.00
79075;BME280;68476;42.710;23.388;2023-12-20T08:27:53;95661.50;;;-2.11;100.00
79075;BME280;68476;42.710;23.388;2023-12-20T08:30:18;95665.97;;;-2.02;100.00
79075;BME280;68476;42.710;23.388;2023-12-20T08:32:48;95657.69;;;-1.80;100.00
79075;BME280;68476;42.710;23.388;2023-12-20T08:35:13;95657.28;;;-2.04;100.00
79075;BME280;68476;42.710;23.388;2023-12-20T08:37:38;95644.78;;;-1.85;100.00
79075;BME280;68476;42.710;23.388;2023-12-20T08:40:04;95639.44;;;-1.85;100.00
79075;BME280;68476;42.710;23.388;2023-12-20T08:42:31;95642.94;;;-2.03;100.00
79075;BME280;68476;42.710;23.388;2023-12-20T08:44:57;95646.50;;;-2.12;100.00
79075;BME280;68476;42.710;23.388;2023-12-20T08:47:24;95637.84;;;-1.96;100.00
79075;BME280;68476;42.710;23.388;2023-12-20T08:49:50;95619.91;;;-1.86;100.00
79075;BME280;68476;42.710;23.388;2023-12-20T08:52:15;95624.59;;;-1.97;100.00
79075;BME280;68476;42.710;23.388;2023-12-20T08:54:41;95617.34;;;-2.05;100.00
79075;BME280;68476;42.710;23.388;2023-12-20T08:57:06;95627.09;;;-2.14;100.00
79075;BME280;68476;42.710;23.388;2023-12-20T08:59:32;95617.78;;;-1.82;100.00
79075;BME280;68476;42.710;23.388;2023-12-20T09:01:58;95617.16;;;-1.76;100.00
79075;BME280;68476;42.710;23.388;2023-12-20T09:04:23;95601.13;;;-1.76;100.00
79075;BME280;68476;42.710;23.388;2023-12-20T09:06:49;95594.31;;;-1.70;100.00
79075;BME280;68476;42.710;23.388;2023-12-20T09:09:15;95593.56;;;-1.80;100.00
79075;BME280;68476;42.710;23.388;2023-12-20T09:11:40;95580.97;;;-1.70;100.00
79075;BME280;68476;42.710;23.388;2023-12-20T09:14:07;95575.41;;;-1.77;100.00
79075;BME280;68476;42.710;23.388;2023-12-20T09:16:32;95564.56;;;-1.57;100.00
79075;BME280;68476;42.710;23.388;2023-12-20T09:18:58;95553.25;;;-1.51;100.00
79075;BME280;68476;42.710;23.388;2023-12-20T09:21:23;95553.34;;;-1.61;100.00
79075;BME280;68476;42.710;23.388;2023-12-20T09:23:49;95542.50;;;-1.59;100.00
79075;BME280;68476;42.710;23.388;2023-12-20T09:26:14;95532.25;;;-1.46;100.00
79075;BME280;68476;42.710;23.388;2023-12-20T09:28:40;95540.88;;;-1.70;100.00
79075;BME280;68476;42.710;23.388;2023-12-20T09:31:06;95531.56;;;-1.48;100.00
79075;BME280;68476;42.710;23.388;2023-12-20T09:33:32;95525.13;;;-1.37;100.00
79075;BME280;68476;42.710;23.388;2023-12-20T09:35:58;95514.63;;;-1.57;100.00
79075;BME280;68476;42.710;23.388;2023-12-20T09:38:23;95512.59;;;-1.36;100.00
79075;BME280;68476;42.710;23.388;2023-12-20T09:40:49;95502.38;;;-1.15;100.00
79075;BME280;68476;42.710;23.388;2023-12-20T09:43:15;95493.66;;;-1.17;100.00
79075;BME280;68476;42.710;23.388;2023-12-20T09:45:42;95498.41;;;-1.37;100.00
79075;BME280;68476;42.710;23.388;2023-12-20T09:48:10;95491.69;;;-1.15;100.00
79075;BME280;68476;42.710;23.388;2023-12-20T09:50:36;95489.50;;;-0.85;100.00
79075;BME280;68476;42.710;23.388;2023-12-20T09:53:02;95503.81;;;-0.94;100.00
79075;BME280;68476;42.710;23.388;2023-12-20T09:55:30;95482.78;;;-0.89;100.00
79075;BME280;68476;42.710;23.388;2023-12-20T09:57:57;95480.63;;;-0.85;100.00
79075;BME280;68476;42.710;23.388;2023-12-20T10:00:23;95475.47;;;-0.79;100.00
79075;BME280;68476;42.710;23.388;2023-12-20T10:02:59;95475.16;;;-0.75;100.00
79075;BME280;68476;42.710;23.388;2023-12-20T10:05:29;95478.63;;;-0.40;100.00
79075;BME280;68476;42.710;23.388;2023-12-20T10:07:55;95476.22;;;-0.60;100.00
79075;BME280;68476;42.710;23.388;2023-12-20T10:10:21;95463.97;;;-0.03;100.00
79075;BME280;68476;42.710;23.388;2023-12-20T10:13:10;95459.28;;;0.15;100.00
79075;BME280;68476;42.710;23.388;2023-12-20T10:15:36;95450.25;;;0.58;100.00
79075;BME280;68476;42.710;23.388;2023-12-20T10:18:03;95440.38;;;0.25;100.00
79075;BME280;68476;42.710;23.388;2023-12-20T10:20:32;95421.75;;;0.49;100.00
79075;BME280;68476;42.710;23.388;2023-12-20T10:22:58;95436.50;;;0.36;100.00
79075;BME280;68476;42.710;23.388;2023-12-20T10:25:25;95444.50;;;-0.22;100.00
79075;BME280;68476;42.710;23.388;2023-12-20T10:28:16;95420.63;;;0.99;100.00
79075;BME280;68476;42.710;23.388;2023-12-20T10:30:51;95419.94;;;0.97;100.00
79075;BME280;68476;42.710;23.388;2023-12-20T10:33:27;95416.38;;;0.57;100.00
79075;BME280;68476;42.710;23.388;2023-12-20T10:35:54;95405.06;;;0.86;100.00
79075;BME280;68476;42.710;23.388;2023-12-20T10:38:19;95396.84;;;0.88;100.00
79075;BME280;68476;42.710;23.388;2023-12-20T10:40:46;95405.72;;;0.97;100.00
79075;BME280;68476;42.710;23.388;2023-12-20T10:43:12;95399.97;;;0.27;100.00
79075;BME280;68476;42.710;23.388;2023-12-20T10:45:37;95410.22;;;0.23;100.00
79075;BME280;68476;42.710;23.388;2023-12-20T10:48:04;95395.81;;;-0.09;100.00
79075;BME280;68476;42.710;23.388;2023-12-20T10:50:30;95390.91;;;0.36;100.00
79075;BME280;68476;42.710;23.388;2023-12-20T10:52:57;95379.75;;;0.16;100.00
79075;BME280;68476;42.710;23.388;2023-12-20T10:55:24;95370.19;;;0.13;100.00
79075;BME280;68476;42.710;23.388;2023-12-20T10:57:51;95385.91;;;0.33;100.00
79075;BME280;68476;42.710;23.388;2023-12-20T11:00:21;95369.69;;;0.83;100.00
79075;BME280;68476;42.710;23.388;2023-12-20T11:02:49;95363.53;;;1.45;100.00
79075;BME280;68476;42.710;23.388;2023-12-20T11:07:54;95356.66;;;0.71;100.00
79075;BME280;68476;42.710;23.388;2023-12-20T11:11:21;95351.00;;;1.37;100.00
79075;BME280;68476;42.710;23.388;2023-12-20T11:13:30;95342.84;;;0.91;100.00
79075;BME280;68476;42.710;23.388;2023-12-20T11:15:56;95345.72;;;1.21;100.00
79075;BME280;68476;42.710;23.388;2023-12-20T11:18:29;95342.75;;;1.07;100.00
79075;BME280;68476;42.710;23.388;2023-12-20T11:20:54;95342.41;;;1.11;100.00
79075;BME280;68476;42.710;23.388;2023-12-20T11:23:20;95342.03;;;0.82;100.00
79075;BME280;68476;42.710;23.388;2023-12-20T11:25:51;95322.69;;;0.55;100.00
79075;BME280;68476;42.710;23.388;2023-12-20T11:28:21;95319.97;;;1.35;100.00
79075;BME280;68476;42.710;23.388;2023-12-20T11:31:00;95311.88;;;1.12;100.00
79075;BME280;68476;42.710;23.388;2023-12-20T11:33:29;95295.78;;;1.58;100.00
79075;BME280;68476;42.710;23.388;2023-12-20T11:35:56;95286.75;;;2.12;100.00
79075;BME280;68476;42.710;23.388;2023-12-20T11:38:22;95284.84;;;2.21;100.00
79075;BME280;68476;42.710;23.388;2023-12-20T11:40:49;95275.34;;;2.25;100.00
79075;BME280;68476;42.710;23.388;2023-12-20T11:43:37;95272.75;;;1.64;100.00
79075;BME280;68476;42.710;23.388;2023-12-20T11:46:07;95273.69;;;1.01;100.00
79075;BME280;68476;42.710;23.388;2023-12-20T11:48:35;95264.88;;;1.39;100.00
79075;BME280;68476;42.710;23.388;2023-12-20T11:51:01;95266.78;;;1.07;100.00
79075;BME280;68476;42.710;23.388;2023-12-20T11:53:28;95261.41;;;0.36;100.00
79075;BME280;68476;42.710;23.388;2023-12-20T11:55:54;95259.78;;;0.26;100.00
79075;BME280;68476;42.710;23.388;2023-12-20T11:58:20;95261.66;;;0.57;100.00
79075;BME280;68476;42.710;23.388;2023-12-20T12:00:45;95238.75;;;1.10;100.00
79075;BME280;68476;42.710;23.388;2023-12-20T12:03:14;95240.22;;;0.57;100.00
79075;BME280;68476;42.710;23.388;2023-12-20T12:05:40;95245.22;;;0.21;100.00
79075;BME280;68476;42.710;23.388;2023-12-20T12:08:06;95229.88;;;-0.02;100.00
79075;BME280;68476;42.710;23.388;2023-12-20T12:10:33;95222.75;;;0.30;100.00
79075;BME280;68476;42.710;23.388;2023-12-20T12:12:59;95217.94;;;0.17;100.00
79075;BME280;68476;42.710;23.388;2023-12-20T12:15:25;95221.63;;;0.16;100.00
79075;BME280;68476;42.710;23.388;2023-12-20T12:17:54;95216.09;;;0.18;100.00
79075;BME280;68476;42.710;23.388;2023-12-20T12:20:20;95209.28;;;0.38;100.00
79075;BME280;68476;42.710;23.388;2023-12-20T12:22:46;95209.19;;;0.23;100.00
79075;BME280;68476;42.710;23.388;2023-12-20T12:25:16;95207.31;;;-0.24;100.00
79075;BME280;68476;42.710;23.388;2023-12-20T12:27:42;95208.47;;;-0.02;100.00
79075;BME280;68476;42.710;23.388;2023-12-20T12:30:08;95203.50;;;-0.30;100.00
79075;BME280;68476;42.710;23.388;2023-12-20T12:32:35;95197.16;;;-0.37;100.00
79075;BME280;68476;42.710;23.388;2023-12-20T12:35:03;95200.72;;;0.03;100.00
79075;BME280;68476;42.710;23.388;2023-12-20T12:37:29;95204.63;;;-0.08;100.00
79075;BME280;68476;42.710;23.388;2023-12-20T12:39:54;95207.34;;;0.24;100.00